sensor_id;sensor_type;location;lat;lon;timestamp;temperature;humidity
72762;SHT30;60886;55.034;73.150;2023-02-11T00:01:08;-19.21;69.18
72762;SHT30;60886;55.034;73.150;2023-02-11T00:04:10;-19.58;67.59
72762;SHT30;60886;55.034;73.150;2023-02-11T00:07:11;-19.81;68.00
72762;SHT30;60886;55.034;73.150;2023-02-11T00:10:13;-20.02;68.05
72762;SHT30;60886;55.034;73.150;2023-02-11T00:13:14;-20.26;68.66
72762;SHT30;60886;55.034;73.150;2023-02-11T00:16:20;-20.40;69.15
72762;SHT30;60886;55.034;73.150;2023-02-11T00:19:22;-20.45;69.05
72762;SHT30;60886;55.034;73.150;2023-02-11T00:22:23;-20.61;68.94
72762;SHT30;60886;55.034;73.150;2023-02-11T00:25:24;-20.73;69.25
72762;SHT30;60886;55.034;73.150;2023-02-11T00:28:30;-20.88;69.26
72762;SHT30;60886;55.034;73.150;2023-02-11T00:31:33;-20.99;69.12
72762;SHT30;60886;55.034;73.150;2023-02-11T00:34:35;-21.05;68.74
72762;SHT30;60886;55.034;73.150;2023-02-11T00:37:37;-21.07;69.07
72762;SHT30;60886;55.034;73.150;2023-02-11T00:40:48;-21.07;68.75
72762;SHT30;60886;55.034;73.150;2023-02-11T00:43:54;-21.09;69.44
72762;SHT30;60886;55.034;73.150;2023-02-11T00:46:57;-21.09;68.46
72762;SHT30;60886;55.034;73.150;2023-02-11T00:49:58;-21.03;68.63
72762;SHT30;60886;55.034;73.150;2023-02-11T00:53:04;-21.06;67.88
72762;SHT30;60886;55.034;73.150;2023-02-11T00:56:06;-21.10;67.76
72762;SHT30;60886;55.034;73.150;2023-02-11T00:59:08;-21.05;68.27
72762;SHT30;60886;55.034;73.150;2023-02-11T01:02:11;-20.99;69.43
72762;SHT30;60886;55.034;73.150;2023-02-11T01:05:12;-20.98;68.81
72762;SHT30;60886;55.034;73.150;2023-02-11T01:08:28;-21.05;66.65
72762;SHT30;60886;55.034;73.150;2023-02-11T01:11:29;-21.30;65.98
72762;SHT30;60886;55.034;73.150;2023-02-11T01:14:31;-21.46;66.97
72762;SHT30;60886;55.034;73.150;2023-02-11T01:17:33;-21.50;67.77
72762;SHT30;60886;55.034;73.150;2023-02-11T01:20:35;-21.61;68.94
72762;SHT30;60886;55.034;73.150;2023-02-11T01:23:37;-21.69;69.12
72762;SHT30;60886;55.034;73.150;2023-02-11T01:26:49;-21.77;68.71
72762;SHT30;60886;55.034;73.150;2023-02-11T01:29:50;-21.83;67.14
72762;SHT30;60886;55.034;73.150;2023-02-11T01:33:07;-21.96;65.71
72762;SHT30;60886;55.034;73.150;2023-02-11T01:36:21;-22.09;64.89
72762;SHT30;60886;55.034;73.150;2023-02-11T01:39:28;-22.14;66.05
72762;SHT30;60886;55.034;73.150;2023-02-11T01:42:32;-22.19;66.53
72762;SHT30;60886;55.034;73.150;2023-02-11T01:48:50;-22.09;66.79
72762;SHT30;60886;55.034;73.150;2023-02-11T01:52:11;-22.06;67.99
72762;SHT30;60886;55.034;73.150;2023-02-11T01:55:14;-22.01;68.02
72762;SHT30;60886;55.034;73.150;2023-02-11T01:58:42;-22.03;67.83
72762;SHT30;60886;55.034;73.150;2023-02-11T02:01:57;-22.06;68.02
72762;SHT30;60886;55.034;73.150;2023-02-11T02:08:52;-22.02;68.00
72762;SHT30;60886;55.034;73.150;2023-02-11T02:12:02;-21.71;72.91
72762;SHT30;60886;55.034;73.150;2023-02-11T02:15:33;-21.46;74.09
72762;SHT30;60886;55.034;73.150;2023-02-11T02:25:34;-21.17;72.66
72762;SHT30;60886;55.034;73.150;2023-02-11T02:38:55;-21.06;72.59
72762;SHT30;60886;55.034;73.150;2023-02-11T02:41:58;-21.00;72.16
72762;SHT30;60886;55.034;73.150;2023-02-11T02:45:10;-21.14;71.67
72762;SHT30;60886;55.034;73.150;2023-02-11T02:48:30;-21.14;71.85
72762;SHT30;60886;55.034;73.150;2023-02-11T02:58:59;-21.05;71.83
72762;SHT30;60886;55.034;73.150;2023-02-11T03:09:07;-20.95;71.68
72762;SHT30;60886;55.034;73.150;2023-02-11T03:12:18;-20.93;71.55
72762;SHT30;60886;55.034;73.150;2023-02-11T03:15:31;-20.93;71.46
72762;SHT30;60886;55.034;73.150;2023-02-11T03:18:36;-20.86;71.76
72762;SHT30;60886;55.034;73.150;2023-02-11T03:21:50;-20.81;71.71
72762;SHT30;60886;55.034;73.150;2023-02-11T03:24:55;-20.72;71.67
72762;SHT30;60886;55.034;73.150;2023-02-11T03:28:04;-20.61;71.41
72762;SHT30;60886;55.034;73.150;2023-02-11T03:31:19;-20.59;70.95
72762;SHT30;60886;55.034;73.150;2023-02-11T03:34:45;-20.54;71.38
72762;SHT30;60886;55.034;73.150;2023-02-11T03:38:01;-20.51;71.50
72762;SHT30;60886;55.034;73.150;2023-02-11T03:41:07;-20.41;71.63
72762;SHT30;60886;55.034;73.150;2023-02-11T03:44:20;-20.36;71.59
72762;SHT30;60886;55.034;73.150;2023-02-11T03:47:25;-20.21;71.83
72762;SHT30;60886;55.034;73.150;2023-02-11T03:50:40;-20.13;71.95
72762;SHT30;60886;55.034;73.150;2023-02-11T03:53:43;-19.97;72.79
72762;SHT30;60886;55.034;73.150;2023-02-11T03:57:00;-19.79;73.40
72762;SHT30;60886;55.034;73.150;2023-02-11T04:00:03;-19.59;73.64
72762;SHT30;60886;55.034;73.150;2023-02-11T04:03:28;-19.41;73.39
72762;SHT30;60886;55.034;73.150;2023-02-11T04:06:33;-19.25;73.36
72762;SHT30;60886;55.034;73.150;2023-02-11T04:09:35;-19.15;72.98
72762;SHT30;60886;55.034;73.150;2023-02-11T04:12:36;-19.00;72.65
72762;SHT30;60886;55.034;73.150;2023-02-11T04:15:42;-18.88;72.16
72762;SHT30;60886;55.034;73.150;2023-02-11T04:18:44;-18.81;72.40
72762;SHT30;60886;55.034;73.150;2023-02-11T04:21:46;-18.76;72.68
72762;SHT30;60886;55.034;73.150;2023-02-11T04:24:57;-18.57;72.69
72762;SHT30;60886;55.034;73.150;2023-02-11T04:28:00;-18.36;72.47
72762;SHT30;60886;55.034;73.150;2023-02-11T04:31:02;-18.15;71.78
72762;SHT30;60886;55.034;73.150;2023-02-11T04:34:03;-17.78;70.87
72762;SHT30;60886;55.034;73.150;2023-02-11T04:37:05;-17.74;70.65
72762;SHT30;60886;55.034;73.150;2023-02-11T04:40:07;-17.42;70.59
72762;SHT30;60886;55.034;73.150;2023-02-11T04:43:15;-17.19;70.03
72762;SHT30;60886;55.034;73.150;2023-02-11T04:46:21;-17.35;69.36
72762;SHT30;60886;55.034;73.150;2023-02-11T04:49:23;-17.49;69.88
72762;SHT30;60886;55.034;73.150;2023-02-11T04:52:24;-17.50;70.73
72762;SHT30;60886;55.034;73.150;2023-02-11T04:55:26;-17.45;71.38
72762;SHT30;60886;55.034;73.150;2023-02-11T04:58:37;-17.35;71.30
72762;SHT30;60886;55.034;73.150;2023-02-11T05:01:48;-17.26;70.94
72762;SHT30;60886;55.034;73.150;2023-02-11T05:05:00;-17.26;70.35
72762;SHT30;60886;55.034;73.150;2023-02-11T05:08:06;-17.10;71.11
72762;SHT30;60886;55.034;73.150;2023-02-11T05:11:21;-17.02;69.95
72762;SHT30;60886;55.034;73.150;2023-02-11T05:14:24;-16.92;69.79
72762;SHT30;60886;55.034;73.150;2023-02-11T05:17:35;-16.97;68.83
72762;SHT30;60886;55.034;73.150;2023-02-11T05:20:37;-16.87;68.97
72762;SHT30;60886;55.034;73.150;2023-02-11T05:23:40;-16.83;68.86
72762;SHT30;60886;55.034;73.150;2023-02-11T05:26:42;-16.88;68.94
72762;SHT30;60886;55.034;73.150;2023-02-11T05:29:51;-16.88;68.87
72762;SHT30;60886;55.034;73.150;2023-02-11T05:32:53;-16.81;69.60
72762;SHT30;60886;55.034;73.150;2023-02-11T05:35:59;-16.73;69.11
72762;SHT30;60886;55.034;73.150;2023-02-11T05:39:01;-16.70;68.89
72762;SHT30;60886;55.034;73.150;2023-02-11T05:42:03;-16.58;69.02
72762;SHT30;60886;55.034;73.150;2023-02-11T05:45:05;-16.53;69.09
72762;SHT30;60886;55.034;73.150;2023-02-11T05:48:09;-16.51;69.28
72762;SHT30;60886;55.034;73.150;2023-02-11T05:51:16;-16.48;69.09
72762;SHT30;60886;55.034;73.150;2023-02-11T05:54:28;-16.39;69.22
72762;SHT30;60886;55.034;73.150;2023-02-11T05:57:29;-16.25;69.63
72762;SHT30;60886;55.034;73.150;2023-02-11T06:00:31;-16.10;68.75
72762;SHT30;60886;55.034;73.150;2023-02-11T06:03:43;-15.99;68.78
72762;SHT30;60886;55.034;73.150;2023-02-11T06:06:46;-15.92;68.99
72762;SHT30;60886;55.034;73.150;2023-02-11T06:09:47;-15.85;68.82
72762;SHT30;60886;55.034;73.150;2023-02-11T06:12:54;-15.77;68.78
72762;SHT30;60886;55.034;73.150;2023-02-11T06:16:00;-15.67;68.71
72762;SHT30;60886;55.034;73.150;2023-02-11T06:19:14;-15.55;68.80
72762;SHT30;60886;55.034;73.150;2023-02-11T06:22:16;-15.58;68.69
72762;SHT30;60886;55.034;73.150;2023-02-11T06:25:19;-15.44;68.53
72762;SHT30;60886;55.034;73.150;2023-02-11T06:28:28;-15.27;68.80
72762;SHT30;60886;55.034;73.150;2023-02-11T06:31:40;-15.07;68.87
72762;SHT30;60886;55.034;73.150;2023-02-11T06:34:43;-14.97;68.55
72762;SHT30;60886;55.034;73.150;2023-02-11T06:37:44;-14.82;68.43
72762;SHT30;60886;55.034;73.150;2023-02-11T06:40:53;-14.71;67.68
72762;SHT30;60886;55.034;73.150;2023-02-11T06:43:55;-14.76;67.37
72762;SHT30;60886;55.034;73.150;2023-02-11T06:46:56;-14.65;67.45
72762;SHT30;60886;55.034;73.150;2023-02-11T06:49:59;-14.57;66.65
72762;SHT30;60886;55.034;73.150;2023-02-11T06:53:01;-14.52;66.16
72762;SHT30;60886;55.034;73.150;2023-02-11T06:56:06;-14.47;66.20
72762;SHT30;60886;55.034;73.150;2023-02-11T06:59:18;-14.50;67.69
72762;SHT30;60886;55.034;73.150;2023-02-11T07:02:23;-14.37;66.93
72762;SHT30;60886;55.034;73.150;2023-02-11T07:05:24;-14.38;67.31
72762;SHT30;60886;55.034;73.150;2023-02-11T07:08:28;-14.41;67.49
72762;SHT30;60886;55.034;73.150;2023-02-11T07:11:30;-14.31;67.44
72762;SHT30;60886;55.034;73.150;2023-02-11T07:14:31;-14.28;67.08
72762;SHT30;60886;55.034;73.150;2023-02-11T07:17:35;-14.19;67.43
72762;SHT30;60886;55.034;73.150;2023-02-11T07:20:36;-14.20;67.28
72762;SHT30;60886;55.034;73.150;2023-02-11T07:23:40;-14.10;66.58
72762;SHT30;60886;55.034;73.150;2023-02-11T07:26:53;-14.02;67.16
72762;SHT30;60886;55.034;73.150;2023-02-11T07:29:55;-13.82;66.03
72762;SHT30;60886;55.034;73.150;2023-02-11T07:33:06;-13.75;65.80
72762;SHT30;60886;55.034;73.150;2023-02-11T07:36:09;-13.59;65.47
72762;SHT30;60886;55.034;73.150;2023-02-11T07:39:11;-13.61;65.50
72762;SHT30;60886;55.034;73.150;2023-02-11T07:42:12;-13.63;65.92
72762;SHT30;60886;55.034;73.150;2023-02-11T07:45:16;-13.66;66.63
72762;SHT30;60886;55.034;73.150;2023-02-11T07:48:28;-13.70;66.60
72762;SHT30;60886;55.034;73.150;2023-02-11T07:51:30;-13.70;67.10
72762;SHT30;60886;55.034;73.150;2023-02-11T07:54:31;-13.63;67.20
72762;SHT30;60886;55.034;73.150;2023-02-11T07:57:38;-13.62;67.19
72762;SHT30;60886;55.034;73.150;2023-02-11T08:00:49;-13.59;66.80
72762;SHT30;60886;55.034;73.150;2023-02-11T08:03:52;-13.48;66.97
72762;SHT30;60886;55.034;73.150;2023-02-11T08:06:54;-13.49;66.73
72762;SHT30;60886;55.034;73.150;2023-02-11T08:09:58;-13.48;66.86
72762;SHT30;60886;55.034;73.150;2023-02-11T08:13:00;-13.41;66.84
72762;SHT30;60886;55.034;73.150;2023-02-11T08:16:02;-13.22;66.41
72762;SHT30;60886;55.034;73.150;2023-02-11T08:19:14;-13.20;66.23
72762;SHT30;60886;55.034;73.150;2023-02-11T08:22:16;-13.21;66.17
72762;SHT30;60886;55.034;73.150;2023-02-11T08:25:17;-13.27;66.38
72762;SHT30;60886;55.034;73.150;2023-02-11T08:28:28;-13.25;66.28
72762;SHT30;60886;55.034;73.150;2023-02-11T08:31:33;-13.27;66.36
72762;SHT30;60886;55.034;73.150;2023-02-11T08:34:35;-13.27;66.50
72762;SHT30;60886;55.034;73.150;2023-02-11T08:37:37;-13.25;66.60
72762;SHT30;60886;55.034;73.150;2023-02-11T08:40:48;-13.21;66.75
72762;SHT30;60886;55.034;73.150;2023-02-11T08:43:49;-13.25;66.55
72762;SHT30;60886;55.034;73.150;2023-02-11T08:47:00;-13.12;66.65
72762;SHT30;60886;55.034;73.150;2023-02-11T08:50:17;-13.08;66.18
72762;SHT30;60886;55.034;73.150;2023-02-11T08:53:28;-13.12;66.41
72762;SHT30;60886;55.034;73.150;2023-02-11T08:56:29;-13.07;66.50
72762;SHT30;60886;55.034;73.150;2023-02-11T08:59:42;-13.07;66.74
72762;SHT30;60886;55.034;73.150;2023-02-11T09:02:55;-13.00;66.82
72762;SHT30;60886;55.034;73.150;2023-02-11T09:06:04;-12.94;66.22
72762;SHT30;60886;55.034;73.150;2023-02-11T09:09:13;-13.04;66.50
72762;SHT30;60886;55.034;73.150;2023-02-11T09:12:16;-13.06;66.57
72762;SHT30;60886;55.034;73.150;2023-02-11T09:15:17;-13.08;66.66
72762;SHT30;60886;55.034;73.150;2023-02-11T09:18:28;-12.99;66.95
72762;SHT30;60886;55.034;73.150;2023-02-11T09:21:35;-12.96;67.18
72762;SHT30;60886;55.034;73.150;2023-02-11T09:24:41;-13.01;67.16
72762;SHT30;60886;55.034;73.150;2023-02-11T09:27:53;-12.99;67.60
72762;SHT30;60886;55.034;73.150;2023-02-11T09:30:54;-12.90;67.50
72762;SHT30;60886;55.034;73.150;2023-02-11T09:34:03;-12.94;67.49
72762;SHT30;60886;55.034;73.150;2023-02-11T09:37:05;-12.86;67.54
72762;SHT30;60886;55.034;73.150;2023-02-11T09:40:07;-12.86;67.54
72762;SHT30;60886;55.034;73.150;2023-02-11T09:43:19;-12.86;67.44
72762;SHT30;60886;55.034;73.150;2023-02-11T09:46:34;-12.81;67.36
72762;SHT30;60886;55.034;73.150;2023-02-11T09:49:46;-12.83;67.48
72762;SHT30;60886;55.034;73.150;2023-02-11T09:56:23;-12.97;68.08
72762;SHT30;60886;55.034;73.150;2023-02-11T09:59:25;-12.96;68.13
72762;SHT30;60886;55.034;73.150;2023-02-11T10:09:18;-12.83;67.76
72762;SHT30;60886;55.034;73.150;2023-02-11T10:19:19;-12.81;67.23
72762;SHT30;60886;55.034;73.150;2023-02-11T10:22:27;-12.75;67.11
72762;SHT30;60886;55.034;73.150;2023-02-11T10:25:58;-12.81;67.12
72762;SHT30;60886;55.034;73.150;2023-02-11T10:29:17;-12.80;67.49
72762;SHT30;60886;55.034;73.150;2023-02-11T10:32:43;-12.83;67.63
72762;SHT30;60886;55.034;73.150;2023-02-11T10:35:47;-12.79;67.47
72762;SHT30;60886;55.034;73.150;2023-02-11T10:38:49;-12.77;67.05
72762;SHT30;60886;55.034;73.150;2023-02-11T10:41:58;-12.77;66.78
72762;SHT30;60886;55.034;73.150;2023-02-11T10:45:03;-12.76;66.70
72762;SHT30;60886;55.034;73.150;2023-02-11T10:52:19;-12.86;66.46
72762;SHT30;60886;55.034;73.150;2023-02-11T10:55:24;-12.87;65.52
72762;SHT30;60886;55.034;73.150;2023-02-11T10:58:38;-12.94;65.93
72762;SHT30;60886;55.034;73.150;2023-02-11T11:02:19;-12.97;65.74
72762;SHT30;60886;55.034;73.150;2023-02-11T11:05:35;-13.04;66.41
72762;SHT30;60886;55.034;73.150;2023-02-11T11:08:50;-13.01;66.84
72762;SHT30;60886;55.034;73.150;2023-02-11T11:12:00;-13.08;66.26
72762;SHT30;60886;55.034;73.150;2023-02-11T11:18:27;-13.18;66.57
72762;SHT30;60886;55.034;73.150;2023-02-11T11:21:46;-13.14;66.55
72762;SHT30;60886;55.034;73.150;2023-02-11T11:24:54;-13.18;67.16
72762;SHT30;60886;55.034;73.150;2023-02-11T11:27:59;-13.21;67.41
72762;SHT30;60886;55.034;73.150;2023-02-11T11:31:01;-13.28;67.34
72762;SHT30;60886;55.034;73.150;2023-02-11T11:34:26;-13.32;67.43
72762;SHT30;60886;55.034;73.150;2023-02-11T11:37:40;-13.41;67.19
72762;SHT30;60886;55.034;73.150;2023-02-11T11:40:43;-13.51;67.54
72762;SHT30;60886;55.034;73.150;2023-02-11T11:43:55;-13.56;67.34
72762;SHT30;60886;55.034;73.150;2023-02-11T11:50:28;-13.72;66.87
72762;SHT30;60886;55.034;73.150;2023-02-11T11:53:52;-13.83;66.97
72762;SHT30;60886;55.034;73.150;2023-02-11T11:57:01;-13.87;67.24
72762;SHT30;60886;55.034;73.150;2023-02-11T12:00:17;-13.96;67.08
72762;SHT30;60886;55.034;73.150;2023-02-11T12:17:13;-14.52;68.13
72762;SHT30;60886;55.034;73.150;2023-02-11T12:24:08;-14.81;68.02
72762;SHT30;60886;55.034;73.150;2023-02-11T12:27:59;-14.92;67.97
72762;SHT30;60886;55.034;73.150;2023-02-11T12:41:29;-15.30;68.63
72762;SHT30;60886;55.034;73.150;2023-02-11T13:06:02;-15.77;70.40
72762;SHT30;60886;55.034;73.150;2023-02-11T13:09:10;-15.86;70.61
72762;SHT30;60886;55.034;73.150;2023-02-11T13:12:13;-15.93;70.73
72762;SHT30;60886;55.034;73.150;2023-02-11T13:19:40;-16.12;71.15
72762;SHT30;60886;55.034;73.150;2023-02-11T13:23:00;-16.17;71.16
72762;SHT30;60886;55.034;73.150;2023-02-11T13:26:20;-16.20;71.14
72762;SHT30;60886;55.034;73.150;2023-02-11T13:29:32;-16.17;71.09
72762;SHT30;60886;55.034;73.150;2023-02-11T13:39:04;-16.27;71.49
72762;SHT30;60886;55.034;73.150;2023-02-11T13:42:14;-16.29;71.49
72762;SHT30;60886;55.034;73.150;2023-02-11T13:48:33;-16.27;71.39
72762;SHT30;60886;55.034;73.150;2023-02-11T13:51:38;-16.30;71.27
72762;SHT30;60886;55.034;73.150;2023-02-11T13:54:51;-16.32;71.33
72762;SHT30;60886;55.034;73.150;2023-02-11T14:01:09;-16.37;71.29
72762;SHT30;60886;55.034;73.150;2023-02-11T14:04:23;-16.41;71.39
72762;SHT30;60886;55.034;73.150;2023-02-11T14:08:15;-16.46;71.77
72762;SHT30;60886;55.034;73.150;2023-02-11T14:12:15;-16.47;71.57
72762;SHT30;60886;55.034;73.150;2023-02-11T14:15:25;-16.48;71.71
72762;SHT30;60886;55.034;73.150;2023-02-11T14:21:45;-16.51;71.28
72762;SHT30;60886;55.034;73.150;2023-02-11T14:24:57;-16.53;70.98
72762;SHT30;60886;55.034;73.150;2023-02-11T14:31:20;-16.53;71.67
72762;SHT30;60886;55.034;73.150;2023-02-11T14:34:59;-16.53;71.42
72762;SHT30;60886;55.034;73.150;2023-02-11T14:41:40;-16.53;71.95
72762;SHT30;60886;55.034;73.150;2023-02-11T14:44:43;-16.48;71.34
72762;SHT30;60886;55.034;73.150;2023-02-11T14:47:53;-16.51;72.08
72762;SHT30;60886;55.034;73.150;2023-02-11T14:51:07;-16.50;72.23
72762;SHT30;60886;55.034;73.150;2023-02-11T14:54:23;-16.47;72.77
72762;SHT30;60886;55.034;73.150;2023-02-11T14:57:25;-16.46;72.68
72762;SHT30;60886;55.034;73.150;2023-02-11T15:00:29;-16.43;72.36
72762;SHT30;60886;55.034;73.150;2023-02-11T15:03:36;-16.44;72.36
72762;SHT30;60886;55.034;73.150;2023-02-11T15:06:40;-16.47;72.38
72762;SHT30;60886;55.034;73.150;2023-02-11T15:09:48;-16.50;72.27
72762;SHT30;60886;55.034;73.150;2023-02-11T15:12:52;-16.47;72.25
72762;SHT30;60886;55.034;73.150;2023-02-11T15:16:07;-16.60;72.07
72762;SHT30;60886;55.034;73.150;2023-02-11T15:19:27;-16.68;72.20
72762;SHT30;60886;55.034;73.150;2023-02-11T15:22:36;-16.77;72.28
72762;SHT30;60886;55.034;73.150;2023-02-11T15:25:45;-16.87;72.64
72762;SHT30;60886;55.034;73.150;2023-02-11T15:28:52;-16.94;72.79
72762;SHT30;60886;55.034;73.150;2023-02-11T15:32:05;-16.95;72.90
72762;SHT30;60886;55.034;73.150;2023-02-11T15:35:10;-16.94;72.72
72762;SHT30;60886;55.034;73.150;2023-02-11T15:38:13;-16.95;72.46
72762;SHT30;60886;55.034;73.150;2023-02-11T15:41:36;-17.07;72.27
72762;SHT30;60886;55.034;73.150;2023-02-11T15:44:43;-17.12;72.48
72762;SHT30;60886;55.034;73.150;2023-02-11T15:47:55;-17.19;72.53
72762;SHT30;60886;55.034;73.150;2023-02-11T15:51:31;-17.18;72.45
72762;SHT30;60886;55.034;73.150;2023-02-11T15:54:35;-17.22;72.31
72762;SHT30;60886;55.034;73.150;2023-02-11T15:57:42;-17.31;72.26
72762;SHT30;60886;55.034;73.150;2023-02-11T16:00:47;-17.33;72.49
72762;SHT30;60886;55.034;73.150;2023-02-11T16:03:49;-17.36;72.53
72762;SHT30;60886;55.034;73.150;2023-02-11T16:07:05;-17.36;72.41
72762;SHT30;60886;55.034;73.150;2023-02-11T16:10:26;-17.47;72.48
72762;SHT30;60886;55.034;73.150;2023-02-11T16:13:30;-17.50;72.62
72762;SHT30;60886;55.034;73.150;2023-02-11T16:16:35;-17.55;72.49
72762;SHT30;60886;55.034;73.150;2023-02-11T16:19:49;-17.62;72.32
72762;SHT30;60886;55.034;73.150;2023-02-11T16:23:29;-17.67;72.40
72762;SHT30;60886;55.034;73.150;2023-02-11T16:26:40;-17.73;72.34
72762;SHT30;60886;55.034;73.150;2023-02-11T16:29:47;-17.80;72.60
72762;SHT30;60886;55.034;73.150;2023-02-11T16:32:51;-17.86;72.58
72762;SHT30;60886;55.034;73.150;2023-02-11T16:35:54;-17.95;72.62
72762;SHT30;60886;55.034;73.150;2023-02-11T16:39:00;-17.93;72.97
72762;SHT30;60886;55.034;73.150;2023-02-11T16:42:03;-17.95;72.53
72762;SHT30;60886;55.034;73.150;2023-02-11T16:45:08;-18.05;72.55
72762;SHT30;60886;55.034;73.150;2023-02-11T16:48:14;-18.05;72.64
72762;SHT30;60886;55.034;73.150;2023-02-11T16:51:19;-18.08;72.61
72762;SHT30;60886;55.034;73.150;2023-02-11T16:54:23;-18.17;72.58
72762;SHT30;60886;55.034;73.150;2023-02-11T16:57:28;-18.22;72.68
72762;SHT30;60886;55.034;73.150;2023-02-11T17:00:29;-18.35;72.45
72762;SHT30;60886;55.034;73.150;2023-02-11T17:03:31;-18.36;72.82
72762;SHT30;60886;55.034;73.150;2023-02-11T17:06:37;-18.36;72.75
72762;SHT30;60886;55.034;73.150;2023-02-11T17:09:45;-18.38;72.72
72762;SHT30;60886;55.034;73.150;2023-02-11T17:12:47;-18.41;72.42
72762;SHT30;60886;55.034;73.150;2023-02-11T17:15:59;-18.45;72.52
72762;SHT30;60886;55.034;73.150;2023-02-11T17:19:02;-18.43;72.57
72762;SHT30;60886;55.034;73.150;2023-02-11T17:22:04;-18.46;72.37
72762;SHT30;60886;55.034;73.150;2023-02-11T17:25:19;-18.55;72.05
72762;SHT30;60886;55.034;73.150;2023-02-11T17:28:27;-18.53;72.58
72762;SHT30;60886;55.034;73.150;2023-02-11T17:31:35;-18.62;72.38
72762;SHT30;60886;55.034;73.150;2023-02-11T17:34:42;-18.70;72.19
72762;SHT30;60886;55.034;73.150;2023-02-11T17:37:44;-18.70;72.70
72762;SHT30;60886;55.034;73.150;2023-02-11T17:40:56;-18.76;72.47
72762;SHT30;60886;55.034;73.150;2023-02-11T17:44:05;-18.73;72.50
72762;SHT30;60886;55.034;73.150;2023-02-11T17:47:08;-18.79;72.23
72762;SHT30;60886;55.034;73.150;2023-02-11T17:50:16;-18.83;72.58
72762;SHT30;60886;55.034;73.150;2023-02-11T17:53:27;-18.86;72.09
72762;SHT30;60886;55.034;73.150;2023-02-11T17:56:32;-18.91;71.90
72762;SHT30;60886;55.034;73.150;2023-02-11T17:59:43;-19.00;72.21
72762;SHT30;60886;55.034;73.150;2023-02-11T18:02:56;-19.07;72.32
72762;SHT30;60886;55.034;73.150;2023-02-11T18:06:04;-19.10;72.52
72762;SHT30;60886;55.034;73.150;2023-02-11T18:09:07;-19.10;72.52
72762;SHT30;60886;55.034;73.150;2023-02-11T18:12:09;-19.07;72.59
72762;SHT30;60886;55.034;73.150;2023-02-11T18:15:11;-19.07;72.44
72762;SHT30;60886;55.034;73.150;2023-02-11T18:18:27;-19.06;72.47
72762;SHT30;60886;55.034;73.150;2023-02-11T18:21:29;-19.04;72.50
72762;SHT30;60886;55.034;73.150;2023-02-11T18:24:30;-19.10;72.43
72762;SHT30;60886;55.034;73.150;2023-02-11T18:27:36;-19.10;72.44
72762;SHT30;60886;55.034;73.150;2023-02-11T18:30:43;-19.10;72.33
72762;SHT30;60886;55.034;73.150;2023-02-11T18:33:55;-19.12;72.02
72762;SHT30;60886;55.034;73.150;2023-02-11T18:36:57;-19.17;71.91
72762;SHT30;60886;55.034;73.150;2023-02-11T18:39:58;-19.21;72.14
72762;SHT30;60886;55.034;73.150;2023-02-11T18:43:01;-19.22;72.21
72762;SHT30;60886;55.034;73.150;2023-02-11T18:46:12;-19.08;72.63
72762;SHT30;60886;55.034;73.150;2023-02-11T18:49:14;-19.21;72.15
72762;SHT30;60886;55.034;73.150;2023-02-11T18:52:26;-19.27;72.30
72762;SHT30;60886;55.034;73.150;2023-02-11T18:55:29;-19.31;72.06
72762;SHT30;60886;55.034;73.150;2023-02-11T18:58:31;-19.36;72.28
72762;SHT30;60886;55.034;73.150;2023-02-11T19:01:33;-19.35;72.38
72762;SHT30;60886;55.034;73.150;2023-02-11T19:04:39;-19.36;72.70
72762;SHT30;60886;55.034;73.150;2023-02-11T19:07:51;-19.38;72.67
72762;SHT30;60886;55.034;73.150;2023-02-11T19:10:59;-19.39;72.66
72762;SHT30;60886;55.034;73.150;2023-02-11T19:14:03;-19.41;72.92
72762;SHT30;60886;55.034;73.150;2023-02-11T19:17:20;-19.43;72.93
72762;SHT30;60886;55.034;73.150;2023-02-11T19:20:23;-19.38;73.02
72762;SHT30;60886;55.034;73.150;2023-02-11T19:23:29;-19.38;72.88
72762;SHT30;60886;55.034;73.150;2023-02-11T19:26:31;-19.41;72.83
72762;SHT30;60886;55.034;73.150;2023-02-11T19:29:34;-19.48;72.76
72762;SHT30;60886;55.034;73.150;2023-02-11T19:32:36;-19.48;73.04
72762;SHT30;60886;55.034;73.150;2023-02-11T19:35:37;-19.43;72.93
72762;SHT30;60886;55.034;73.150;2023-02-11T19:38:39;-19.43;72.84
72762;SHT30;60886;55.034;73.150;2023-02-11T19:41:41;-19.42;72.81
72762;SHT30;60886;55.034;73.150;2023-02-11T19:44:43;-19.35;72.84
72762;SHT30;60886;55.034;73.150;2023-02-11T19:47:44;-19.34;72.45
72762;SHT30;60886;55.034;73.150;2023-02-11T19:50:45;-19.32;72.25
72762;SHT30;60886;55.034;73.150;2023-02-11T19:53:47;-19.39;72.16
72762;SHT30;60886;55.034;73.150;2023-02-11T19:56:48;-19.39;72.56
72762;SHT30;60886;55.034;73.150;2023-02-11T19:59:51;-19.41;72.66
72762;SHT30;60886;55.034;73.150;2023-02-11T20:02:54;-19.39;72.61
72762;SHT30;60886;55.034;73.150;2023-02-11T20:06:14;-19.39;72.68
72762;SHT30;60886;55.034;73.150;2023-02-11T20:09:27;-19.42;72.40
72762;SHT30;60886;55.034;73.150;2023-02-11T20:12:35;-19.39;72.38
72762;SHT30;60886;55.034;73.150;2023-02-11T20:15:36;-19.39;72.32
72762;SHT30;60886;55.034;73.150;2023-02-11T20:18:44;-19.41;72.36
72762;SHT30;60886;55.034;73.150;2023-02-11T20:21:49;-19.45;72.58
72762;SHT30;60886;55.034;73.150;2023-02-11T20:24:52;-19.48;72.51
72762;SHT30;60886;55.034;73.150;2023-02-11T20:27:53;-19.45;72.84
72762;SHT30;60886;55.034;73.150;2023-02-11T20:31:05;-19.50;72.40
72762;SHT30;60886;55.034;73.150;2023-02-11T20:34:17;-19.47;72.42
72762;SHT30;60886;55.034;73.150;2023-02-11T20:37:25;-19.47;72.53
72762;SHT30;60886;55.034;73.150;2023-02-11T20:40:26;-19.54;72.20
72762;SHT30;60886;55.034;73.150;2023-02-11T20:43:27;-19.57;72.36
72762;SHT30;60886;55.034;73.150;2023-02-11T20:46:37;-19.58;72.57
72762;SHT30;60886;55.034;73.150;2023-02-11T20:49:45;-19.55;72.53
72762;SHT30;60886;55.034;73.150;2023-02-11T20:52:46;-19.54;72.69
72762;SHT30;60886;55.034;73.150;2023-02-11T20:56:00;-19.55;72.41
72762;SHT30;60886;55.034;73.150;2023-02-11T20:59:03;-19.61;72.22
72762;SHT30;60886;55.034;73.150;2023-02-11T21:02:10;-19.61;72.56
72762;SHT30;60886;55.034;73.150;2023-02-11T21:05:20;-19.61;72.74
72762;SHT30;60886;55.034;73.150;2023-02-11T21:08:27;-19.66;73.00
72762;SHT30;60886;55.034;73.150;2023-02-11T21:11:38;-19.69;73.31
72762;SHT30;60886;55.034;73.150;2023-02-11T21:14:41;-19.73;73.07
72762;SHT30;60886;55.034;73.150;2023-02-11T21:17:43;-19.75;72.92
72762;SHT30;60886;55.034;73.150;2023-02-11T21:20:48;-19.81;72.87
72762;SHT30;60886;55.034;73.150;2023-02-11T21:24:00;-19.87;73.00
72762;SHT30;60886;55.034;73.150;2023-02-11T21:27:02;-19.85;73.01
72762;SHT30;60886;55.034;73.150;2023-02-11T21:30:14;-19.86;72.66
72762;SHT30;60886;55.034;73.150;2023-02-11T21:33:16;-19.90;72.79